Time;durP1;ratioP1;P1;durP2;ratioP2;P2;SDS_P1;SDS_P2;PMS_P1;PMS_P2;Temp;Humidity;BMP_temperature;BMP_pressure;BME280_temperature;BME280_humidity;BME280_pressure;Samples;Min_cycle;Max_cycle;Signal;HPM_P1;HPM_P2
2023/08/11 00:00:21;;;;;;;12.10;11.07;;;;;;;;;;5058497;28;20105;-86
2023/08/11 00:02:49;;;;;;;12.25;11.35;;;;;;;;;;5059118;28;20048;-86
2023/08/11 00:05:17;;;;;;;11.02;10.13;;;;;;;;;;5074019;28;20158;-86
2023/08/11 00:07:50;;;;;;;12.85;11.77;;;;;;;;;;5074571;28;20056;-86
2023/08/11 00:10:16;;;;;;;13.15;12.13;;;;;;;;;;5074959;28;20052;-86
2023/08/11 00:12:42;;;;;;;11.25;10.35;;;;;;;;;;5075136;28;20056;-85
2023/08/11 00:15:09;;;;;;;11.80;10.80;;;;;;;;;;5058525;28;20060;-85
2023/08/11 00:17:35;;;;;;;10.90;10.05;;;;;;;;;;5040788;28;20048;-86
2023/08/11 00:20:01;;;;;;;10.27;9.40;;;;;;;;;;5074435;28;20041;-86
2023/08/11 00:22:28;;;;;;;10.35;9.63;;;;;;;;;;5074396;28;20044;-86
2023/08/11 00:24:54;;;;;;;10.80;9.80;;;;;;;;;;5074084;28;20037;-86
2023/08/11 00:27:20;;;;;;;9.60;8.88;;;;;;;;;;5074112;28;20055;-86
2023/08/11 00:29:46;;;;;;;11.65;9.00;;;;;;;;;;5075489;28;20102;-86
2023/08/11 00:32:12;;;;;;;9.13;8.32;;;;;;;;;;5073723;28;20049;-86
2023/08/11 00:34:38;;;;;;;10.13;9.07;;;;;;;;;;5058171;28;20040;-86
2023/08/11 00:37:04;;;;;;;9.75;8.88;;;;;;;;;;5057256;28;20503;-86
2023/08/11 00:39:30;;;;;;;9.50;8.88;;;;;;;;;;5074031;28;20044;-85
2023/08/11 00:41:57;;;;;;;8.30;7.70;;;;;;;;;;5074189;28;20500;-86
2023/08/11 00:44:23;;;;;;;8.95;8.15;;;;;;;;;;5074660;28;20084;-86
2023/08/11 00:46:49;;;;;;;9.82;9.10;;;;;;;;;;5073410;28;20518;-86
2023/08/11 00:49:15;;;;;;;8.75;8.15;;;;;;;;;;5074836;28;20481;-86
2023/08/11 00:51:42;;;;;;;9.45;8.70;;;;;;;;;;5039981;28;20055;-85
2023/08/11 00:54:10;;;;;;;9.82;8.82;;;;;;;;;;5074563;28;20123;-85
2023/08/11 00:56:36;;;;;;;10.20;9.40;;;;;;;;;;5073276;28;20105;-85
2023/08/11 00:59:03;;;;;;;9.52;8.88;;;;;;;;;;5073763;28;20064;-85
2023/08/11 01:01:30;;;;;;;9.25;8.35;;;;;;;;;;5056965;28;20049;-85
2023/08/11 01:03:57;;;;;;;9.40;8.68;;;;;;;;;;5073679;28;20484;-85
2023/08/11 01:06:23;;;;;;;9.05;8.25;;;;;;;;;;5073759;28;20048;-85
2023/08/11 01:08:53;;;;;;;9.60;8.70;;;;;;;;;;5073884;28;20044;-86
2023/08/11 01:11:23;;;;;;;9.90;9.05;;;;;;;;;;5073849;28;20140;-86
2023/08/11 01:13:54;;;;;;;10.38;9.45;;;;;;;;;;5074362;28;20052;-86
2023/08/11 01:16:21;;;;;;;9.13;8.35;;;;;;;;;;5074333;28;20048;-86
2023/08/11 01:18:48;;;;;;;9.88;9.02;;;;;;;;;;5039148;28;20377;-86
2023/08/11 01:21:14;;;;;;;10.15;9.00;;;;;;;;;;5074721;28;20048;-86
2023/08/11 01:23:41;;;;;;;9.25;8.60;;;;;;;;;;5073617;28;20377;-86
2023/08/11 01:26:08;;;;;;;9.32;8.63;;;;;;;;;;5073817;28;20055;-86
2023/08/11 01:28:37;;;;;;;9.05;8.43;;;;;;;;;;5040161;28;20055;-85
2023/08/11 01:31:03;;;;;;;9.57;8.73;;;;;;;;;;5073740;28;20135;-86
2023/08/11 01:33:29;;;;;;;9.45;8.52;;;;;;;;;;5074775;28;20055;-86
2023/08/11 01:35:55;;;;;;;9.98;9.02;;;;;;;;;;5073313;28;20045;-86
2023/08/11 01:38:21;;;;;;;9.30;8.52;;;;;;;;;;5073217;28;20076;-86
2023/08/11 01:40:48;;;;;;;9.75;8.90;;;;;;;;;;5074104;28;20048;-86
2023/08/11 01:43:15;;;;;;;9.75;8.85;;;;;;;;;;5074067;28;20048;-86
2023/08/11 01:45:43;;;;;;;9.85;8.95;;;;;;;;;;5056519;28;20048;-86
2023/08/11 01:48:10;;;;;;;9.35;8.55;;;;;;;;;;5072238;28;20492;-86
2023/08/11 01:50:37;;;;;;;8.57;7.82;;;;;;;;;;5073136;28;20059;-86
2023/08/11 01:53:03;;;;;;;8.82;7.90;;;;;;;;;;5056761;28;20053;-86
2023/08/11 01:55:29;;;;;;;8.65;7.95;;;;;;;;;;5073275;28;20052;-86
2023/08/11 01:57:55;;;;;;;8.85;8.25;;;;;;;;;;5056853;28;20071;-86
2023/08/11 02:00:22;;;;;;;8.73;8.13;;;;;;;;;;5073288;28;20082;-86
2023/08/11 02:02:49;;;;;;;8.43;7.70;;;;;;;;;;5073338;28;20044;-86
2023/08/11 02:05:15;;;;;;;8.73;8.02;;;;;;;;;;5073436;28;20423;-86
2023/08/11 02:07:42;;;;;;;9.43;8.57;;;;;;;;;;5074374;28;20461;-86
2023/08/11 02:10:09;;;;;;;8.43;7.80;;;;;;;;;;5073115;28;20040;-85
2023/08/11 02:12:37;;;;;;;9.15;8.25;;;;;;;;;;5056292;28;20045;-85
2023/08/11 02:15:05;;;;;;;9.50;8.80;;;;;;;;;;5072839;28;20059;-85
2023/08/11 02:17:31;;;;;;;8.77;7.88;;;;;;;;;;5072573;28;20461;-86
2023/08/11 02:19:58;;;;;;;9.05;8.30;;;;;;;;;;5056668;28;20060;-86
2023/08/11 02:22:24;;;;;;;8.98;8.18;;;;;;;;;;5073018;28;20055;-86
2023/08/11 02:24:50;;;;;;;9.10;8.48;;;;;;;;;;5073247;28;20049;-86
2023/08/11 02:27:17;;;;;;;9.90;9.10;;;;;;;;;;5073237;28;20045;-86
2023/08/11 02:29:44;;;;;;;9.07;7.63;;;;;;;;;;5072319;28;20453;-85
2023/08/11 02:32:11;;;;;;;8.68;7.95;;;;;;;;;;5056220;28;20063;-85
2023/08/11 02:34:38;;;;;;;8.38;7.75;;;;;;;;;;5073000;28;20519;-86
2023/08/11 02:37:04;;;;;;;9.27;8.32;;;;;;;;;;5056304;28;20059;-86
2023/08/11 02:39:30;;;;;;;8.02;7.32;;;;;;;;;;5073425;28;20052;-86
2023/08/11 02:41:56;;;;;;;8.48;7.68;;;;;;;;;;5075828;28;20519;-86
2023/08/11 02:44:22;;;;;;;8.68;8.05;;;;;;;;;;5076301;28;20174;-86
2023/08/11 02:46:48;;;;;;;8.52;7.78;;;;;;;;;;5076350;28;20044;-86
2023/08/11 02:49:14;;;;;;;8.02;7.40;;;;;;;;;;5076529;28;20056;-86
2023/08/11 02:51:41;;;;;;;8.40;7.80;;;;;;;;;;5076930;28;20519;-86
2023/08/11 02:54:07;;;;;;;8.18;7.47;;;;;;;;;;5076025;28;20137;-86
2023/08/11 02:56:33;;;;;;;8.07;7.25;;;;;;;;;;5075973;28;20045;-86
2023/08/11 02:58:59;;;;;;;7.85;7.28;;;;;;;;;;5059446;28;20072;-86
2023/08/11 03:01:25;;;;;;;7.78;7.00;;;;;;;;;;5076072;28;20404;-86
2023/08/11 03:03:52;;;;;;;7.30;6.75;;;;;;;;;;5059436;28;20041;-86
2023/08/11 03:06:18;;;;;;;8.48;7.97;;;;;;;;;;5075849;28;20480;-86
2023/08/11 03:08:45;;;;;;;8.52;7.80;;;;;;;;;;5075924;28;20056;-86
2023/08/11 03:11:11;;;;;;;8.27;7.57;;;;;;;;;;5075816;28;20411;-86
2023/08/11 03:13:37;;;;;;;8.45;7.68;;;;;;;;;;5076863;28;20135;-86
2023/08/11 03:16:03;;;;;;;8.40;7.68;;;;;;;;;;5075207;28;20076;-86
2023/08/11 03:18:30;;;;;;;8.90;8.23;;;;;;;;;;5076070;28;20084;-86
2023/08/11 03:20:56;;;;;;;8.05;7.25;;;;;;;;;;5075923;28;20044;-86
2023/08/11 03:23:22;;;;;;;8.38;7.75;;;;;;;;;;5076861;28;20049;-86
2023/08/11 03:25:48;;;;;;;8.05;7.45;;;;;;;;;;5075672;28;20400;-86
2023/08/11 03:28:14;;;;;;;8.48;7.75;;;;;;;;;;5076314;28;20476;-86
2023/08/11 03:30:41;;;;;;;7.38;6.88;;;;;;;;;;5077190;28;20040;-86
2023/08/11 03:33:07;;;;;;;7.82;7.22;;;;;;;;;;5076833;28;20099;-86
2023/08/11 03:35:33;;;;;;;6.43;5.85;;;;;;;;;;5075826;28;20044;-86
2023/08/11 03:38:00;;;;;;;7.70;7.10;;;;;;;;;;5075125;28;20062;-86
2023/08/11 03:40:26;;;;;;;9.30;8.50;;;;;;;;;;5074919;28;20488;-86
2023/08/11 03:42:53;;;;;;;8.15;7.50;;;;;;;;;;5058280;28;20109;-86
2023/08/11 03:45:19;;;;;;;7.38;6.68;;;;;;;;;;5074811;28;20386;-86
2023/08/11 03:47:45;;;;;;;7.15;6.60;;;;;;;;;;5058061;28;20044;-86
2023/08/11 03:50:12;;;;;;;8.35;7.65;;;;;;;;;;5075227;28;20094;-86
2023/08/11 03:52:38;;;;;;;11.38;6.82;;;;;;;;;;5074362;28;20447;-86
2023/08/11 03:55:09;;;;;;;7.15;6.60;;;;;;;;;;5075420;28;20075;-86
2023/08/11 03:57:36;;;;;;;8.18;7.53;;;;;;;;;;5076066;28;20048;-86
2023/08/11 04:00:04;;;;;;;10.80;9.75;;;;;;;;;;5042315;28;20127;-86
2023/08/11 04:02:30;;;;;;;8.38;7.68;;;;;;;;;;5074687;28;20044;-86
2023/08/11 04:04:56;;;;;;;8.45;7.88;;;;;;;;;;5058286;28;20044;-86
2023/08/11 04:07:23;;;;;;;7.15;6.55;;;;;;;;;;5074502;28;20399;-86
2023/08/11 04:09:50;;;;;;;7.68;7.00;;;;;;;;;;5075762;28;20143;-86
2023/08/11 04:12:16;;;;;;;7.68;6.95;;;;;;;;;;5074491;28;20045;-86
2023/08/11 04:14:42;;;;;;;7.72;6.88;;;;;;;;;;5073828;28;20056;-86
2023/08/11 04:17:08;;;;;;;7.53;6.80;;;;;;;;;;5058022;28;20103;-86
2023/08/11 04:19:34;;;;;;;7.80;7.07;;;;;;;;;;5074435;28;20047;-86
2023/08/11 04:22:00;;;;;;;6.75;6.35;;;;;;;;;;5074330;28;20051;-86
2023/08/11 04:24:26;;;;;;;7.60;7.13;;;;;;;;;;5057635;28;20047;-86
2023/08/11 04:26:52;;;;;;;8.13;7.57;;;;;;;;;;5057296;28;20076;-86
2023/08/11 04:29:18;;;;;;;9.00;8.18;;;;;;;;;;5075727;28;20051;-86
2023/08/11 04:31:44;;;;;;;7.90;7.07;;;;;;;;;;5075497;28;20102;-87
2023/08/11 04:34:11;;;;;;;7.50;6.90;;;;;;;;;;5074700;28;20040;-86
2023/08/11 04:36:37;;;;;;;7.70;7.20;;;;;;;;;;5041566;28;20094;-86
2023/08/11 04:39:05;;;;;;;7.93;7.32;;;;;;;;;;5075622;28;20086;-86
2023/08/11 04:41:31;;;;;;;7.00;6.50;;;;;;;;;;5058325;28;20080;-86
2023/08/11 04:43:57;;;;;;;7.93;7.32;;;;;;;;;;5075058;28;20044;-87
2023/08/11 04:46:24;;;;;;;8.20;7.65;;;;;;;;;;5041048;28;20040;-87
2023/08/11 04:48:50;;;;;;;9.63;8.82;;;;;;;;;;5074392;28;20049;-87
2023/08/11 04:51:16;;;;;;;8.98;7.50;;;;;;;;;;5074067;28;20053;-87
2023/08/11 04:53:42;;;;;;;11.25;9.95;;;;;;;;;;5074395;28;20127;-87
2023/08/11 04:56:09;;;;;;;7.72;7.20;;;;;;;;;;5074217;28;20051;-87
2023/08/11 04:58:35;;;;;;;8.10;7.40;;;;;;;;;;5058565;28;20085;-87
2023/08/11 05:01:03;;;;;;;7.45;7.03;;;;;;;;;;5074392;28;20041;-86
2023/08/11 05:03:29;;;;;;;8.90;7.97;;;;;;;;;;5074738;28;20044;-86
2023/08/11 05:05:55;;;;;;;8.07;7.47;;;;;;;;;;5057449;28;20396;-87
2023/08/11 05:08:22;;;;;;;8.80;8.05;;;;;;;;;;5057147;28;20040;-87
2023/08/11 05:10:48;;;;;;;8.95;8.20;;;;;;;;;;5074014;28;20041;-87
2023/08/11 05:13:14;;;;;;;10.57;9.25;;;;;;;;;;5074116;28;20049;-86
2023/08/11 05:15:40;;;;;;;9.13;8.18;;;;;;;;;;5057547;28;20492;-87
2023/08/11 05:18:07;;;;;;;8.98;8.07;;;;;;;;;;5074095;28;20052;-87
2023/08/11 05:20:33;;;;;;;9.95;9.07;;;;;;;;;;5074178;28;20044;-87
2023/08/11 05:22:59;;;;;;;8.98;8.07;;;;;;;;;;5074461;28;20129;-87
2023/08/11 05:25:26;;;;;;;9.25;8.55;;;;;;;;;;5057421;28;20062;-87
2023/08/11 05:27:52;;;;;;;8.85;8.05;;;;;;;;;;5073765;28;20178;-87
2023/08/11 05:30:18;;;;;;;9.43;8.57;;;;;;;;;;5073957;28;20044;-87
2023/08/11 05:32:44;;;;;;;9.75;8.85;;;;;;;;;;5074511;28;20174;-87
2023/08/11 05:35:12;;;;;;;8.93;8.07;;;;;;;;;;5073535;28;20045;-87
2023/08/11 05:37:38;;;;;;;8.63;7.80;;;;;;;;;;5073729;28;20083;-87
2023/08/11 05:40:07;;;;;;;8.95;8.23;;;;;;;;;;5074735;28;20041;-87
2023/08/11 05:42:33;;;;;;;8.43;7.68;;;;;;;;;;5073867;28;20091;-87
2023/08/11 05:44:59;;;;;;;8.20;7.50;;;;;;;;;;5074424;28;20512;-87
2023/08/11 05:47:25;;;;;;;8.52;6.97;;;;;;;;;;5073091;28;20131;-87
2023/08/11 05:49:53;;;;;;;8.27;7.53;;;;;;;;;;5073854;28;20044;-87
2023/08/11 05:52:19;;;;;;;8.18;7.55;;;;;;;;;;5070644;28;20048;-87
2023/08/11 05:54:45;;;;;;;7.95;7.28;;;;;;;;;;5073511;28;20102;-87
2023/08/11 05:57:12;;;;;;;7.95;6.57;;;;;;;;;;5072228;28;20459;-87
2023/08/11 05:59:38;;;;;;;6.68;6.13;;;;;;;;;;5056595;28;20045;-87
2023/08/11 06:02:04;;;;;;;7.32;6.63;;;;;;;;;;5073665;28;20424;-87
2023/08/11 06:04:30;;;;;;;8.70;7.03;;;;;;;;;;5073931;28;20080;-87
2023/08/11 06:06:56;;;;;;;6.65;6.05;;;;;;;;;;5075512;28;20090;-87
2023/08/11 06:09:23;;;;;;;7.72;7.03;;;;;;;;;;5073774;28;20044;-87
2023/08/11 06:11:49;;;;;;;6.65;6.15;;;;;;;;;;5075015;28;20060;-87
2023/08/11 06:14:15;;;;;;;8.23;6.13;;;;;;;;;;5069319;28;20052;-86
2023/08/11 06:16:41;;;;;;;6.15;5.68;;;;;;;;;;5076782;28;20052;-87
2023/08/11 06:19:08;;;;;;;6.72;6.18;;;;;;;;;;5080304;28;20048;-87
2023/08/11 06:21:35;;;;;;;6.82;6.20;;;;;;;;;;5055238;28;20048;-87
2023/08/11 06:24:01;;;;;;;6.07;5.57;;;;;;;;;;5086656;28;20041;-87
2023/08/11 06:26:27;;;;;;;6.03;5.40;;;;;;;;;;5043800;28;20045;-87
2023/08/11 06:28:53;;;;;;;5.72;5.32;;;;;;;;;;5077077;28;20447;-87
2023/08/11 06:31:19;;;;;;;6.72;5.90;;;;;;;;;;5059925;28;20056;-87
2023/08/11 06:33:45;;;;;;;5.70;5.28;;;;;;;;;;5078592;28;20044;-87
2023/08/11 06:36:11;;;;;;;5.40;4.82;;;;;;;;;;5076191;28;20049;-87
2023/08/11 06:38:37;;;;;;;6.00;5.50;;;;;;;;;;5076301;28;20055;-87
2023/08/11 06:41:04;;;;;;;7.20;4.90;;;;;;;;;;5076091;28;20043;-87
2023/08/11 06:43:30;;;;;;;4.82;4.53;;;;;;;;;;5059267;28;20040;-87
2023/08/11 06:45:56;;;;;;;5.60;5.07;;;;;;;;;;5075732;28;20094;-87
2023/08/11 06:48:22;;;;;;;4.93;4.32;;;;;;;;;;5075532;28;20048;-87
2023/08/11 06:50:48;;;;;;;5.13;3.78;;;;;;;;;;5059637;28;20037;-87
2023/08/11 06:53:14;;;;;;;4.50;4.05;;;;;;;;;;5076645;28;20052;-86
2023/08/11 06:55:40;;;;;;;4.10;3.75;;;;;;;;;;5077003;28;20044;-88
2023/08/11 06:58:07;;;;;;;4.53;4.10;;;;;;;;;;5060076;28;20400;-87
2023/08/11 07:00:33;;;;;;;3.92;3.38;;;;;;;;;;5076520;28;20048;-87
2023/08/11 07:02:59;;;;;;;3.33;3.03;;;;;;;;;;5076754;28;20064;-87
2023/08/11 07:05:25;;;;;;;4.95;3.20;;;;;;;;;;5077727;28;20041;-87
2023/08/11 07:07:52;;;;;;;3.35;3.08;;;;;;;;;;5076110;28;20051;-87
2023/08/11 07:10:18;;;;;;;4.80;2.92;;;;;;;;;;5059269;28;20044;-87
2023/08/11 07:12:44;;;;;;;5.03;3.00;;;;;;;;;;5076729;28;20052;-87
2023/08/11 07:15:10;;;;;;;3.85;3.42;;;;;;;;;;5075767;28;20061;-87
2023/08/11 07:17:36;;;;;;;3.67;3.10;;;;;;;;;;5077249;28;20049;-88
2023/08/11 07:20:02;;;;;;;3.53;3.20;;;;;;;;;;5077518;28;20044;-88
2023/08/11 07:22:29;;;;;;;4.75;2.78;;;;;;;;;;5076029;28;20270;-88
2023/08/11 07:24:55;;;;;;;3.50;3.17;;;;;;;;;;5076580;28;20045;-88
2023/08/11 07:27:21;;;;;;;2.60;2.47;;;;;;;;;;5075959;28;20538;-88
2023/08/11 07:29:47;;;;;;;2.65;2.45;;;;;;;;;;5075729;28;20107;-88
2023/08/11 07:32:13;;;;;;;3.90;2.67;;;;;;;;;;5076158;28;20048;-88
2023/08/11 07:34:40;;;;;;;2.90;2.70;;;;;;;;;;5076761;28;20044;-88
2023/08/11 07:37:06;;;;;;;2.80;2.60;;;;;;;;;;5076620;28;20538;-88
2023/08/11 07:39:32;;;;;;;2.53;2.20;;;;;;;;;;5076505;28;20048;-88
2023/08/11 07:42:02;;;;;;;2.08;1.88;;;;;;;;;;5058888;28;20537;-88
2023/08/11 07:44:32;;;;;;;3.22;2.10;;;;;;;;;;5058471;28;20047;-88
2023/08/11 07:47:00;;;;;;;3.55;2.00;;;;;;;;;;5075370;28;20048;-88
2023/08/11 07:49:27;;;;;;;2.28;2.10;;;;;;;;;;5058789;28;20048;-87
2023/08/11 07:51:53;;;;;;;2.10;1.77;;;;;;;;;;5076628;28;20185;-87
2023/08/11 07:54:19;;;;;;;3.20;1.70;;;;;;;;;;5075164;28;20504;-88
2023/08/11 07:56:45;;;;;;;3.00;1.58;;;;;;;;;;5058882;28;20500;-88
2023/08/11 07:59:11;;;;;;;2.05;1.95;;;;;;;;;;5075287;28;20052;-87
2023/08/11 08:01:37;;;;;;;2.30;1.85;;;;;;;;;;5058290;28;20497;-88
2023/08/11 08:04:04;;;;;;;2.45;1.42;;;;;;;;;;5075996;28;20040;-87
2023/08/11 08:06:31;;;;;;;3.58;1.80;;;;;;;;;;5076023;28;20051;-88
2023/08/11 08:08:57;;;;;;;3.10;1.60;;;;;;;;;;5076329;28;20048;-87
2023/08/11 08:11:23;;;;;;;1.08;0.93;;;;;;;;;;5059866;28;20048;-87
2023/08/11 08:13:49;;;;;;;1.75;1.40;;;;;;;;;;5058033;28;20059;-87
2023/08/11 08:16:15;;;;;;;5.05;1.15;;;;;;;;;;5076527;28;20048;-88
2023/08/11 08:18:41;;;;;;;3.35;1.25;;;;;;;;;;5075030;28;20049;-87
2023/08/11 08:21:08;;;;;;;3.20;1.58;;;;;;;;;;5075530;28;20055;-87
2023/08/11 08:23:34;;;;;;;3.17;1.10;;;;;;;;;;5074571;28;20044;-87
2023/08/11 08:26:00;;;;;;;3.45;1.10;;;;;;;;;;5074708;28;20048;-87
2023/08/11 08:28:26;;;;;;;1.40;0.90;;;;;;;;;;5075566;28;20049;-87
2023/08/11 08:30:52;;;;;;;2.15;1.00;;;;;;;;;;5074477;28;20460;-87
2023/08/11 08:33:18;;;;;;;1.65;0.93;;;;;;;;;;5075739;28;20055;-87
2023/08/11 08:35:44;;;;;;;2.28;0.50;;;;;;;;;;5058213;28;20138;-87
2023/08/11 08:38:10;;;;;;;2.42;0.70;;;;;;;;;;5074756;28;20048;-87
2023/08/11 08:40:37;;;;;;;2.17;0.73;;;;;;;;;;5075181;28;20566;-87
2023/08/11 08:43:03;;;;;;;1.80;0.60;;;;;;;;;;5075358;28;20049;-88
2023/08/11 08:45:31;;;;;;;3.92;0.90;;;;;;;;;;5075519;28;20054;-87
2023/08/11 08:47:58;;;;;;;1.45;0.77;;;;;;;;;;5074111;28;20048;-88
2023/08/11 08:50:25;;;;;;;2.20;0.80;;;;;;;;;;5074165;28;20048;-88
2023/08/11 08:52:53;;;;;;;1.70;0.98;;;;;;;;;;5075062;28;20080;-88
2023/08/11 08:55:19;;;;;;;1.02;0.93;;;;;;;;;;5057874;28;20048;-88
2023/08/11 08:57:47;;;;;;;2.30;1.17;;;;;;;;;;5075527;28;20086;-88
2023/08/11 09:00:13;;;;;;;2.80;0.88;;;;;;;;;;5074908;28;20400;-88
2023/08/11 09:02:41;;;;;;;2.50;0.70;;;;;;;;;;5074448;28;20484;-88
2023/08/11 09:05:08;;;;;;;1.58;1.13;;;;;;;;;;5074745;28;20040;-88
2023/08/11 09:07:34;;;;;;;1.73;0.68;;;;;;;;;;5075815;28;20389;-88
2023/08/11 09:10:00;;;;;;;1.75;0.77;;;;;;;;;;5075011;28;20056;-87
2023/08/11 09:12:27;;;;;;;4.60;1.25;;;;;;;;;;5074716;28;20052;-88
2023/08/11 09:14:54;;;;;;;2.33;1.25;;;;;;;;;;5074884;28;20063;-88
2023/08/11 09:17:21;;;;;;;2.95;0.65;;;;;;;;;;5074759;28;20408;-88
2023/08/11 09:19:53;;;;;;;2.95;0.95;;;;;;;;;;5057628;28;20051;-88
2023/08/11 09:22:26;;;;;;;2.50;0.98;;;;;;;;;;5075069;28;20055;-88
2023/08/11 09:24:53;;;;;;;2.35;1.08;;;;;;;;;;5074076;28;20040;-88
2023/08/11 09:27:21;;;;;;;1.45;0.65;;;;;;;;;;5075021;28;20048;-88
2023/08/11 09:29:49;;;;;;;2.10;1.10;;;;;;;;;;5074005;28;20469;-88
2023/08/11 09:32:15;;;;;;;3.63;0.80;;;;;;;;;;5074038;28;20048;-88
2023/08/11 09:34:43;;;;;;;2.25;0.90;;;;;;;;;;5108013;28;20036;-88
2023/08/11 09:37:10;;;;;;;1.50;0.90;;;;;;;;;;5074962;28;20476;-88
2023/08/11 09:39:36;;;;;;;5.60;1.27;;;;;;;;;;5075374;28;20553;-88
2023/08/11 09:42:04;;;;;;;3.95;1.27;;;;;;;;;;5074731;28;20048;-88
2023/08/11 09:44:30;;;;;;;3.72;1.30;;;;;;;;;;5073609;28;20040;-88
2023/08/11 09:46:56;;;;;;;3.85;1.40;;;;;;;;;;5073759;28;20036;-88
2023/08/11 09:49:22;;;;;;;1.40;1.10;;;;;;;;;;5073347;28;20429;-88
2023/08/11 09:51:50;;;;;;;1.38;1.02;;;;;;;;;;5077159;28;20487;-88
2023/08/11 09:54:17;;;;;;;1.77;1.10;;;;;;;;;;5078634;28;20105;-88
2023/08/11 09:56:43;;;;;;;3.58;1.13;;;;;;;;;;5077111;28;20040;-88
2023/08/11 09:59:15;;;;;;;2.47;1.42;;;;;;;;;;5078294;28;20516;-89
2023/08/11 10:01:46;;;;;;;2.45;1.10;;;;;;;;;;5078546;28;20041;-88
2023/08/11 10:04:36;;;;;;;2.00;1.08;;;;;;;;;;5078798;28;20128;-88
2023/08/11 10:07:03;;;;;;;1.88;1.40;;;;;;;;;;5060024;28;20040;-89
2023/08/11 10:09:30;;;;;;;2.90;1.08;;;;;;;;;;5077141;28;20503;-88
2023/08/11 10:11:58;;;;;;;3.13;1.05;;;;;;;;;;5060512;28;20059;-88
2023/08/11 10:14:26;;;;;;;2.30;1.25;;;;;;;;;;5078641;28;20087;-89
2023/08/11 10:16:53;;;;;;;4.28;0.82;;;;;;;;;;5078587;28;20075;-88
2023/08/11 10:19:19;;;;;;;2.72;1.00;;;;;;;;;;5079000;28;20056;-88
2023/08/11 10:21:45;;;;;;;1.92;1.33;;;;;;;;;;5079237;28;20041;-88
2023/08/11 10:24:11;;;;;;;3.33;0.90;;;;;;;;;;5076604;28;20120;-89
2023/08/11 10:26:37;;;;;;;2.97;0.63;;;;;;;;;;5044794;28;20044;-89
2023/08/11 10:29:04;;;;;;;2.65;1.23;;;;;;;;;;5077618;28;20054;-89
2023/08/11 10:31:43;;;;;;;1.38;0.88;;;;;;;;;;5077458;28;20052;-88
2023/08/11 10:34:09;;;;;;;1.48;0.90;;;;;;;;;;5077257;28;20056;-89
2023/08/11 10:36:35;;;;;;;2.30;0.77;;;;;;;;;;5077307;28;20072;-87
2023/08/11 10:39:10;;;;;;;4.53;0.70;;;;;;;;;;5077013;28;20050;-88
2023/08/11 10:41:36;;;;;;;2.45;1.30;;;;;;;;;;5076828;28;20071;-88
2023/08/11 10:44:05;;;;;;;5.45;1.60;;;;;;;;;;5076807;28;20132;-88
2023/08/11 10:46:32;;;;;;;2.35;0.70;;;;;;;;;;5077391;28;20052;-89
2023/08/11 10:48:59;;;;;;;1.48;0.98;;;;;;;;;;5076871;28;20476;-89
2023/08/11 10:51:28;;;;;;;1.88;0.80;;;;;;;;;;5076658;28;20131;-89
2023/08/11 10:53:55;;;;;;;3.22;0.70;;;;;;;;;;5077967;28;20048;-89
2023/08/11 10:56:28;;;;;;;0.93;0.80;;;;;;;;;;5078513;28;20044;-89
2023/08/11 10:59:08;;;;;;;1.47;0.83;;;;;;;;;;5078392;28;20465;-89
2023/08/11 11:01:38;;;;;;;2.35;0.70;;;;;;;;;;5078471;28;20333;-89
2023/08/11 11:04:06;;;;;;;0.70;0.40;;;;;;;;;;5078018;28;20507;-89
2023/08/11 11:06:33;;;;;;;1.45;0.80;;;;;;;;;;5078973;28;20067;-89
2023/08/11 11:08:59;;;;;;;1.70;0.75;;;;;;;;;;5077628;28;20068;-89
2023/08/11 11:11:25;;;;;;;1.48;0.60;;;;;;;;;;5077168;28;20085;-89
2023/08/11 11:13:52;;;;;;;4.35;0.50;;;;;;;;;;5078421;28;20045;-89
2023/08/11 11:16:21;;;;;;;1.30;0.70;;;;;;;;;;5059982;28;20048;-89
2023/08/11 11:18:47;;;;;;;2.40;0.50;;;;;;;;;;5075773;28;20045;-89
2023/08/11 11:21:20;;;;;;;3.25;0.60;;;;;;;;;;5076241;28;20083;-89
2023/08/11 11:23:46;;;;;;;1.30;0.68;;;;;;;;;;5059522;28;20094;-89
2023/08/11 11:26:14;;;;;;;1.85;0.90;;;;;;;;;;5076540;28;20143;-89
2023/08/11 11:28:41;;;;;;;1.42;0.75;;;;;;;;;;5077622;28;20045;-89
2023/08/11 11:31:07;;;;;;;4.78;1.10;;;;;;;;;;5076589;28;20056;-89
2023/08/11 11:33:33;;;;;;;2.63;0.70;;;;;;;;;;5077661;28;20450;-89
2023/08/11 11:35:59;;;;;;;1.27;0.60;;;;;;;;;;5076026;28;20048;-89
2023/08/11 11:38:25;;;;;;;1.73;0.65;;;;;;;;;;5075908;28;20142;-89
2023/08/11 11:40:51;;;;;;;0.88;0.50;;;;;;;;;;5059627;28;20477;-89
2023/08/11 11:43:18;;;;;;;2.75;0.50;;;;;;;;;;5075992;28;20140;-88
2023/08/11 11:45:47;;;;;;;3.45;0.50;;;;;;;;;;5075225;28;20079;-88
2023/08/11 11:48:13;;;;;;;1.67;0.50;;;;;;;;;;5075699;28;20048;-88
2023/08/11 11:50:39;;;;;;;4.43;0.50;;;;;;;;;;5076250;28;20130;-88
2023/08/11 11:53:06;;;;;;;2.03;0.60;;;;;;;;;;5059054;28;20087;-89
2023/08/11 11:55:32;;;;;;;2.35;0.60;;;;;;;;;;5059514;28;20059;-88
2023/08/11 11:57:58;;;;;;;1.00;0.60;;;;;;;;;;5077048;28;20101;-88
2023/08/11 12:00:25;;;;;;;1.33;0.63;;;;;;;;;;5076458;28;20060;-88
2023/08/11 12:02:53;;;;;;;3.95;0.68;;;;;;;;;;5076724;28;20044;-88
2023/08/11 12:05:21;;;;;;;2.90;0.60;;;;;;;;;;5059400;28;20048;-89
2023/08/11 12:07:47;;;;;;;1.67;0.70;;;;;;;;;;5077147;28;20044;-89
2023/08/11 12:10:15;;;;;;;1.20;0.52;;;;;;;;;;5075486;28;20064;-88
2023/08/11 12:12:42;;;;;;;2.38;0.73;;;;;;;;;;5074620;28;20559;-89
2023/08/11 12:15:09;;;;;;;1.58;0.90;;;;;;;;;;5075957;28;20092;-89
2023/08/11 12:17:35;;;;;;;2.38;0.80;;;;;;;;;;5058910;28;20048;-89
2023/08/11 12:20:07;;;;;;;1.77;0.80;;;;;;;;;;5075362;28;20051;-89
2023/08/11 12:22:34;;;;;;;1.25;0.52;;;;;;;;;;5075094;28;20117;-89
2023/08/11 12:25:00;;;;;;;2.50;0.60;;;;;;;;;;5075223;28;20044;-89
2023/08/11 12:27:26;;;;;;;1.45;0.50;;;;;;;;;;5075241;28;20132;-89
2023/08/11 12:29:52;;;;;;;1.70;0.60;;;;;;;;;;5074870;28;20052;-89
2023/08/11 12:32:18;;;;;;;4.07;0.80;;;;;;;;;;5075412;28;20040;-89
2023/08/11 12:34:44;;;;;;;2.20;1.00;;;;;;;;;;5076393;28;20136;-89
2023/08/11 12:37:10;;;;;;;4.50;0.77;;;;;;;;;;5074745;28;20051;-89
2023/08/11 12:39:36;;;;;;;3.33;0.68;;;;;;;;;;5074580;28;20090;-89
2023/08/11 12:42:02;;;;;;;1.10;0.60;;;;;;;;;;5076250;28;20385;-89
2023/08/11 12:44:28;;;;;;;2.08;0.70;;;;;;;;;;5076066;28;20500;-88
2023/08/11 12:46:54;;;;;;;2.72;0.60;;;;;;;;;;5075060;28;20044;-89
2023/08/11 12:49:21;;;;;;;4.03;0.82;;;;;;;;;;5073741;28;20040;-89
2023/08/11 12:51:51;;;;;;;1.70;0.70;;;;;;;;;;5074360;28;20131;-89
2023/08/11 12:54:17;;;;;;;1.70;0.88;;;;;;;;;;5074400;28;20127;-89
2023/08/11 12:56:43;;;;;;;1.33;0.60;;;;;;;;;;5074848;28;20036;-89
2023/08/11 12:59:09;;;;;;;2.17;0.95;;;;;;;;;;5076100;28;20559;-89
2023/08/11 13:01:35;;;;;;;0.88;0.63;;;;;;;;;;5075477;28;20052;-89
2023/08/11 13:04:03;;;;;;;1.02;0.80;;;;;;;;;;5075440;28;20091;-88
2023/08/11 13:06:30;;;;;;;2.08;0.85;;;;;;;;;;5059024;28;20052;-89
2023/08/11 13:08:56;;;;;;;1.63;0.77;;;;;;;;;;5075589;28;20083;-89
2023/08/11 13:11:22;;;;;;;3.38;0.63;;;;;;;;;;5076221;28;20044;-89
2023/08/11 13:13:49;;;;;;;2.30;0.70;;;;;;;;;;5075741;28;20053;-89
2023/08/11 13:16:16;;;;;;;2.35;0.60;;;;;;;;;;5075298;28;20052;-89
2023/08/11 13:18:42;;;;;;;2.83;0.70;;;;;;;;;;5075109;28;20141;-89
2023/08/11 13:21:08;;;;;;;1.75;0.73;;;;;;;;;;5077393;28;20051;-89
2023/08/11 13:23:34;;;;;;;2.30;0.68;;;;;;;;;;5074801;28;20050;-89
2023/08/11 13:26:00;;;;;;;2.00;1.20;;;;;;;;;;5073221;28;20044;-89
2023/08/11 13:28:27;;;;;;;1.13;0.50;;;;;;;;;;5058155;28;20472;-90
2023/08/11 13:30:53;;;;;;;2.67;0.80;;;;;;;;;;5075342;28;20127;-90
2023/08/11 13:33:19;;;;;;;3.13;1.02;;;;;;;;;;5075999;28;20036;-89
2023/08/11 13:35:47;;;;;;;3.65;0.63;;;;;;;;;;5074657;28;20457;-89
2023/08/11 13:38:14;;;;;;;3.78;0.70;;;;;;;;;;5074633;28;20063;-89
2023/08/11 13:40:40;;;;;;;2.30;0.80;;;;;;;;;;5074539;28;20049;-89
2023/08/11 13:43:07;;;;;;;4.75;0.60;;;;;;;;;;5076700;28;20044;-89
2023/08/11 13:45:33;;;;;;;2.42;0.55;;;;;;;;;;5076326;28;20067;-90
2023/08/11 13:47:59;;;;;;;1.23;0.55;;;;;;;;;;5057971;28;20481;-90
2023/08/11 13:50:26;;;;;;;1.70;0.52;;;;;;;;;;5074661;28;20044;-89
2023/08/11 13:52:52;;;;;;;1.83;0.73;;;;;;;;;;5075178;28;20044;-89
2023/08/11 13:55:18;;;;;;;5.60;1.05;;;;;;;;;;5076054;28;20052;-89
2023/08/11 13:57:48;;;;;;;0.95;0.50;;;;;;;;;;5074765;28;20051;-89
2023/08/11 14:00:14;;;;;;;1.10;0.70;;;;;;;;;;5073882;28;20051;-89
2023/08/11 14:02:41;;;;;;;4.78;0.77;;;;;;;;;;5074185;28;20048;-88
2023/08/11 14:05:07;;;;;;;1.40;0.77;;;;;;;;;;5074230;28;20075;-89
2023/08/11 14:07:33;;;;;;;2.15;0.63;;;;;;;;;;5074259;28;20070;-89
2023/08/11 14:10:00;;;;;;;0.88;0.73;;;;;;;;;;5074826;28;20052;-89
2023/08/11 14:12:26;;;;;;;1.75;0.75;;;;;;;;;;5074697;28;20135;-89
2023/08/11 14:14:52;;;;;;;1.60;0.75;;;;;;;;;;5074038;28;20090;-89
2023/08/11 14:17:18;;;;;;;2.53;0.82;;;;;;;;;;5075514;28;20063;-89
2023/08/11 14:19:44;;;;;;;1.23;0.60;;;;;;;;;;5057412;28;20399;-89
2023/08/11 14:22:10;;;;;;;2.15;0.63;;;;;;;;;;5073728;28;20396;-89
2023/08/11 14:24:36;;;;;;;1.77;0.63;;;;;;;;;;5075226;28;20044;-89
2023/08/11 14:27:02;;;;;;;2.55;0.65;;;;;;;;;;5058214;28;20061;-89
2023/08/11 14:29:29;;;;;;;3.58;1.02;;;;;;;;;;5058304;28;20041;-89
2023/08/11 14:31:55;;;;;;;2.20;0.88;;;;;;;;;;5075370;28;20059;-90
2023/08/11 14:34:21;;;;;;;2.65;0.90;;;;;;;;;;5074151;28;20139;-89
2023/08/11 14:36:47;;;;;;;3.60;1.70;;;;;;;;;;5075963;28;20064;-89
2023/08/11 14:39:13;;;;;;;4.25;2.00;;;;;;;;;;5060703;28;20098;-89